CST60 KMIA-KTPA
Flight info
| Callsign | CST60 |
|---|---|
| Flight time | 0h 31m |
| Altitude | 24000 |
| Route | BNGOS4 COREA BLFRG3 |
| Aircraft | B736/M-SDE2E3FGHIRWXY/LB1 |
Departure
| Time | 2026-05-06 14:49 |
|---|---|
| Airport | Miami International Airport (KMIA) |
Arrival
| Time | 2026-05-06 15:20 |
|---|---|
| Airport | Tampa International Airport (KTPA) |
| Time | Latitude | Longitude | Altitude | Speed | Heading |
|---|---|---|---|---|---|
| 2026-05-06 14:34 | 25.79202 | -80.27827 | 16 ft | 0 kts | 283° |
| 2026-05-06 14:40 | 25.79199 | -80.27812 | 14 ft | 4 kts | 283° |
| 2026-05-06 14:40 | 25.79195 | -80.27788 | 14 ft | 4 kts | 263° |
| 2026-05-06 14:41 | 25.79206 | -80.27764 | 16 ft | 4 kts | 213° |
| 2026-05-06 14:41 | 25.79218 | -80.27756 | 14 ft | 1 kts | 202° |
| 2026-05-06 14:41 | 25.79220 | -80.27756 | 14 ft | 0 kts | 202° |
| 2026-05-06 14:43 | 25.79219 | -80.27756 | 14 ft | 1 kts | 202° |
| 2026-05-06 14:43 | 25.79181 | -80.27769 | 14 ft | 9 kts | 190° |
| 2026-05-06 14:43 | 25.79118 | -80.27775 | 14 ft | 9 kts | 185° |
| 2026-05-06 14:44 | 25.79058 | -80.27794 | 14 ft | 9 kts | 204° |
| 2026-05-06 14:44 | 25.78992 | -80.27826 | 14 ft | 12 kts | 204° |
| 2026-05-06 14:44 | 25.78933 | -80.27882 | 15 ft | 12 kts | 258° |
| 2026-05-06 14:45 | 25.78994 | -80.28041 | 15 ft | 12 kts | 298° |
| 2026-05-06 14:45 | 25.79041 | -80.28132 | 15 ft | 15 kts | 299° |
| 2026-05-06 14:45 | 25.79092 | -80.28233 | 14 ft | 15 kts | 300° |
| 2026-05-06 14:45 | 25.79148 | -80.28331 | 16 ft | 16 kts | 298° |
| 2026-05-06 14:46 | 25.79222 | -80.28425 | 14 ft | 16 kts | 317° |
| 2026-05-06 14:46 | 25.79293 | -80.28518 | 15 ft | 15 kts | 307° |
| 2026-05-06 14:46 | 25.79338 | -80.28624 | 15 ft | 16 kts | 292° |
| 2026-05-06 14:46 | 25.79418 | -80.28801 | 14 ft | 33 kts | 300° |
| 2026-05-06 14:47 | 25.79532 | -80.29024 | 14 ft | 33 kts | 299° |
| 2026-05-06 14:47 | 25.79639 | -80.29235 | 14 ft | 30 kts | 299° |
| 2026-05-06 14:47 | 25.79739 | -80.29431 | 16 ft | 28 kts | 299° |
| 2026-05-06 14:47 | 25.79838 | -80.29611 | 14 ft | 26 kts | 304° |
| 2026-05-06 14:48 | 25.79920 | -80.29784 | 13 ft | 24 kts | 290° |
| 2026-05-06 14:48 | 25.79973 | -80.29956 | 12 ft | 23 kts | 288° |
| 2026-05-06 14:48 | 25.80020 | -80.30110 | 14 ft | 14 kts | 309° |
| 2026-05-06 14:48 | 25.80073 | -80.30080 | 12 ft | 15 kts | 85° |
| 2026-05-06 14:49 | 25.80091 | -80.29680 | 13 ft | 96 kts | 88° |
| 2026-05-06 14:49 | 25.80134 | -80.28642 | 76 ft | 164 kts | 87° |
| 2026-05-06 14:49 | 25.80200 | -80.27356 | 970 ft | 159 kts | 85° |
| 2026-05-06 14:49 | 25.80292 | -80.26177 | 2058 ft | 158 kts | 85° |
| 2026-05-06 14:50 | 25.80376 | -80.24812 | 2481 ft | 198 kts | 86° |
| 2026-05-06 14:50 | 25.80454 | -80.23186 | 2929 ft | 229 kts | 88° |
| 2026-05-06 14:50 | 25.80513 | -80.21267 | 3325 ft | 267 kts | 88° |
| 2026-05-06 14:50 | 25.80648 | -80.19186 | 4502 ft | 273 kts | 76° |
| 2026-05-06 14:51 | 25.81523 | -80.17329 | 5807 ft | 276 kts | 47° |
| 2026-05-06 14:51 | 25.83113 | -80.16148 | 7019 ft | 281 kts | 19° |
| 2026-05-06 14:51 | 25.85051 | -80.15800 | 8165 ft | 285 kts | 2° |
| 2026-05-06 14:51 | 25.87056 | -80.15734 | 9250 ft | 291 kts | 1° |
| 2026-05-06 14:52 | 25.89109 | -80.15715 | 10316 ft | 297 kts | 356° |
| 2026-05-06 14:52 | 25.91203 | -80.16211 | 10858 ft | 322 kts | 342° |
| 2026-05-06 14:52 | 25.93431 | -80.17053 | 11143 ft | 351 kts | 341° |
| 2026-05-06 14:52 | 25.95788 | -80.17930 | 11882 ft | 362 kts | 340° |
| 2026-05-06 14:53 | 25.98015 | -80.19253 | 12782 ft | 366 kts | 320° |
| 2026-05-06 14:53 | 25.99689 | -80.21387 | 13725 ft | 369 kts | 300° |
| 2026-05-06 14:53 | 26.00768 | -80.23990 | 14591 ft | 373 kts | 292° |
| 2026-05-06 14:53 | 26.01732 | -80.26693 | 15360 ft | 379 kts | 291° |
| 2026-05-06 14:54 | 26.02686 | -80.29444 | 16113 ft | 384 kts | 291° |
| 2026-05-06 14:54 | 26.03654 | -80.32228 | 16851 ft | 388 kts | 291° |
| 2026-05-06 14:54 | 26.04633 | -80.35007 | 17555 ft | 392 kts | 291° |
| 2026-05-06 14:54 | 26.05644 | -80.37846 | 18233 ft | 396 kts | 291° |
| 2026-05-06 14:55 | 26.06670 | -80.40708 | 18876 ft | 401 kts | 291° |
| 2026-05-06 14:55 | 26.07709 | -80.43597 | 19492 ft | 404 kts | 292° |
| 2026-05-06 14:55 | 26.08760 | -80.46516 | 20077 ft | 408 kts | 292° |
| 2026-05-06 14:55 | 26.09822 | -80.49466 | 20641 ft | 412 kts | 292° |
| 2026-05-06 14:56 | 26.10890 | -80.52438 | 21181 ft | 415 kts | 291° |
| 2026-05-06 14:56 | 26.11967 | -80.55435 | 21705 ft | 419 kts | 291° |
| 2026-05-06 14:56 | 26.13064 | -80.58458 | 22210 ft | 422 kts | 294° |
| 2026-05-06 14:56 | 26.14553 | -80.61272 | 22697 ft | 425 kts | 306° |
| 2026-05-06 14:57 | 26.16352 | -80.63893 | 23220 ft | 426 kts | 308° |
| 2026-05-06 14:57 | 26.18175 | -80.66442 | 23971 ft | 419 kts | 308° |
| 2026-05-06 14:57 | 26.19984 | -80.68976 | 24285 ft | 417 kts | 308° |
| 2026-05-06 14:57 | 26.21793 | -80.71545 | 24316 ft | 427 kts | 308° |
| 2026-05-06 14:58 | 26.23626 | -80.74189 | 24336 ft | 436 kts | 307° |
| 2026-05-06 14:58 | 26.25467 | -80.76870 | 24333 ft | 445 kts | 307° |
| 2026-05-06 14:58 | 26.27351 | -80.79628 | 24329 ft | 448 kts | 307° |
| 2026-05-06 14:58 | 26.29231 | -80.82388 | 24320 ft | 446 kts | 307° |
| 2026-05-06 14:59 | 26.31102 | -80.85134 | 24324 ft | 445 kts | 307° |
| 2026-05-06 14:59 | 26.32975 | -80.87884 | 24313 ft | 445 kts | 307° |
| 2026-05-06 14:59 | 26.34850 | -80.90635 | 24324 ft | 445 kts | 307° |
| 2026-05-06 14:59 | 26.36752 | -80.93353 | 24321 ft | 445 kts | 311° |
| 2026-05-06 15:00 | 26.38910 | -80.95821 | 24331 ft | 445 kts | 317° |
| 2026-05-06 15:00 | 26.41204 | -80.98140 | 24325 ft | 445 kts | 318° |
| 2026-05-06 15:00 | 26.43525 | -81.00434 | 24325 ft | 446 kts | 318° |
| 2026-05-06 15:00 | 26.45826 | -81.02755 | 24322 ft | 446 kts | 317° |
| 2026-05-06 15:01 | 26.48072 | -81.05083 | 24322 ft | 446 kts | 317° |
| 2026-05-06 15:01 | 26.50336 | -81.07465 | 24315 ft | 446 kts | 316° |
| 2026-05-06 15:01 | 26.52592 | -81.09850 | 24322 ft | 446 kts | 316° |
| 2026-05-06 15:01 | 26.54849 | -81.12238 | 24328 ft | 446 kts | 316° |
| 2026-05-06 15:02 | 26.57111 | -81.14631 | 24328 ft | 446 kts | 316° |
| 2026-05-06 15:02 | 26.58605 | -81.16212 | 24317 ft | 446 kts | 316° |
| 2026-05-06 15:02 | 26.60858 | -81.18594 | 24321 ft | 446 kts | 316° |
| 2026-05-06 15:02 | 26.63841 | -81.21768 | 24325 ft | 446 kts | 315° |
| 2026-05-06 15:03 | 26.65928 | -81.24337 | 24319 ft | 446 kts | 310° |
| 2026-05-06 15:03 | 26.67877 | -81.27038 | 24332 ft | 446 kts | 308° |
| 2026-05-06 15:03 | 26.69132 | -81.28847 | 24324 ft | 446 kts | 307° |
| 2026-05-06 15:03 | 26.71032 | -81.31607 | 24323 ft | 446 kts | 308° |
| 2026-05-06 15:04 | 26.72932 | -81.34346 | 24309 ft | 446 kts | 308° |
| 2026-05-06 15:04 | 26.74850 | -81.37076 | 24323 ft | 446 kts | 308° |
| 2026-05-06 15:04 | 26.76783 | -81.39797 | 24321 ft | 446 kts | 308° |
| 2026-05-06 15:04 | 26.78721 | -81.42506 | 24328 ft | 446 kts | 309° |
| 2026-05-06 15:05 | 26.80664 | -81.45213 | 24317 ft | 446 kts | 309° |
| 2026-05-06 15:05 | 26.82607 | -81.47918 | 24325 ft | 446 kts | 309° |
| 2026-05-06 15:05 | 26.84528 | -81.50592 | 24318 ft | 446 kts | 309° |
| 2026-05-06 15:05 | 26.86469 | -81.53299 | 24323 ft | 446 kts | 309° |
| 2026-05-06 15:06 | 26.88410 | -81.56007 | 24314 ft | 446 kts | 309° |
| 2026-05-06 15:06 | 26.90354 | -81.58722 | 24324 ft | 446 kts | 309° |
| 2026-05-06 15:06 | 26.92293 | -81.61433 | 24318 ft | 446 kts | 309° |
| 2026-05-06 15:06 | 26.94230 | -81.64143 | 24329 ft | 446 kts | 309° |
| 2026-05-06 15:07 | 26.96167 | -81.66854 | 24314 ft | 446 kts | 308° |
| 2026-05-06 15:07 | 26.98112 | -81.69578 | 24337 ft | 451 kts | 308° |
| 2026-05-06 15:07 | 27.00090 | -81.72350 | 24333 ft | 457 kts | 308° |
| 2026-05-06 15:07 | 27.02088 | -81.75152 | 24332 ft | 463 kts | 308° |
| 2026-05-06 15:08 | 27.04107 | -81.77986 | 24331 ft | 467 kts | 308° |
| 2026-05-06 15:08 | 27.06144 | -81.80845 | 24315 ft | 471 kts | 308° |
| 2026-05-06 15:08 | 27.08217 | -81.83707 | 24318 ft | 474 kts | 311° |
| 2026-05-06 15:08 | 27.10657 | -81.86205 | 24337 ft | 475 kts | 322° |
| 2026-05-06 15:09 | 27.13321 | -81.88423 | 24326 ft | 478 kts | 324° |
| 2026-05-06 15:09 | 27.16036 | -81.90596 | 24323 ft | 479 kts | 324° |
| 2026-05-06 15:09 | 27.18754 | -81.92783 | 24322 ft | 481 kts | 324° |
| 2026-05-06 15:09 | 27.21455 | -81.95001 | 24323 ft | 482 kts | 323° |
| 2026-05-06 15:10 | 27.24143 | -81.97251 | 24324 ft | 482 kts | 323° |
| 2026-05-06 15:10 | 27.26827 | -81.99524 | 24324 ft | 483 kts | 323° |
| 2026-05-06 15:10 | 27.29512 | -82.01809 | 24324 ft | 484 kts | 323° |
| 2026-05-06 15:10 | 27.32196 | -82.04094 | 24323 ft | 484 kts | 323° |
| 2026-05-06 15:11 | 27.34849 | -82.06350 | 24306 ft | 485 kts | 323° |
| 2026-05-06 15:11 | 27.37537 | -82.08636 | 23900 ft | 485 kts | 322° |
| 2026-05-06 15:11 | 27.40164 | -82.11023 | 22849 ft | 482 kts | 320° |
| 2026-05-06 15:11 | 27.42698 | -82.13430 | 21837 ft | 474 kts | 320° |
| 2026-05-06 15:12 | 27.45181 | -82.15836 | 20958 ft | 465 kts | 318° |
| 2026-05-06 15:12 | 27.47538 | -82.18211 | 20866 ft | 442 kts | 318° |
| 2026-05-06 15:12 | 27.49725 | -82.20541 | 20726 ft | 421 kts | 313° |
| 2026-05-06 15:12 | 27.51625 | -82.22962 | 20368 ft | 408 kts | 310° |
| 2026-05-06 15:13 | 27.53442 | -82.25428 | 19497 ft | 410 kts | 309° |
| 2026-05-06 15:13 | 27.55254 | -82.27903 | 18721 ft | 409 kts | 309° |
| 2026-05-06 15:13 | 27.57075 | -82.30350 | 18080 ft | 404 kts | 310° |
| 2026-05-06 15:13 | 27.58892 | -82.32746 | 17463 ft | 399 kts | 310° |
| 2026-05-06 15:14 | 27.60675 | -82.35068 | 16835 ft | 395 kts | 311° |
| 2026-05-06 15:14 | 27.62471 | -82.37391 | 16180 ft | 391 kts | 311° |
| 2026-05-06 15:14 | 27.64256 | -82.39694 | 15541 ft | 388 kts | 311° |
| 2026-05-06 15:14 | 27.66012 | -82.41960 | 14859 ft | 379 kts | 311° |
| 2026-05-06 15:15 | 27.67733 | -82.44181 | 13914 ft | 374 kts | 311° |
| 2026-05-06 15:15 | 27.69438 | -82.46383 | 12868 ft | 371 kts | 311° |
| 2026-05-06 15:15 | 27.71120 | -82.48558 | 12118 ft | 361 kts | 311° |
| 2026-05-06 15:15 | 27.72737 | -82.50650 | 11587 ft | 345 kts | 311° |
| 2026-05-06 15:16 | 27.74450 | -82.52440 | 11230 ft | 327 kts | 329° |
| 2026-05-06 15:16 | 27.76474 | -82.53384 | 10659 ft | 306 kts | 347° |
| 2026-05-06 15:16 | 27.78531 | -82.53581 | 10022 ft | 288 kts | 1° |
| 2026-05-06 15:16 | 27.80498 | -82.53504 | 9241 ft | 278 kts | 2° |
| 2026-05-06 15:17 | 27.82395 | -82.53412 | 8384 ft | 268 kts | 2° |
| 2026-05-06 15:17 | 27.84188 | -82.53335 | 7931 ft | 245 kts | 2° |
| 2026-05-06 15:17 | 27.85790 | -82.53274 | 7591 ft | 221 kts | 2° |
| 2026-05-06 15:17 | 27.87259 | -82.52777 | 6545 ft | 229 kts | 36° |
| 2026-05-06 15:18 | 27.88495 | -82.51718 | 5947 ft | 215 kts | 15° |
| 2026-05-06 15:18 | 27.89882 | -82.51828 | 5471 ft | 199 kts | 338° |
| 2026-05-06 15:18 | 27.91073 | -82.52702 | 4499 ft | 212 kts | 320° |
| 2026-05-06 15:18 | 27.92312 | -82.53185 | 4056 ft | 182 kts | 0° |
| 2026-05-06 15:19 | 27.93496 | -82.52662 | 3091 ft | 188 kts | 47° |
| 2026-05-06 15:19 | 27.94112 | -82.51451 | 2587 ft | 168 kts | 43° |
| 2026-05-06 15:19 | 27.95108 | -82.51313 | 2141 ft | 147 kts | 328° |
| 2026-05-06 15:19 | 27.95727 | -82.52252 | 1297 ft | 157 kts | 302° |
| 2026-05-06 15:20 | 27.96611 | -82.52870 | 556 ft | 156 kts | 353° |
| 2026-05-06 15:20 | 27.97686 | -82.52858 | 41 ft | 143 kts | 2° |
| 2026-05-06 15:20 | 27.98434 | -82.52820 | 35 ft | 68 kts | 2° |
| 2026-05-06 15:20 | 27.98643 | -82.52824 | 36 ft | 17 kts | 357° |
| 2026-05-06 15:21 | 27.98698 | -82.52922 | 39 ft | 18 kts | 238° |
| 2026-05-06 15:21 | 27.98565 | -82.52948 | 39 ft | 28 kts | 181° |
| 2026-05-06 15:21 | 27.98338 | -82.52959 | 40 ft | 34 kts | 182° |
| 2026-05-06 15:21 | 27.98108 | -82.52966 | 41 ft | 32 kts | 182° |
| 2026-05-06 15:22 | 27.97894 | -82.52975 | 41 ft | 30 kts | 181° |
| 2026-05-06 15:22 | 27.97694 | -82.52982 | 41 ft | 28 kts | 182° |
| 2026-05-06 15:22 | 27.97558 | -82.52990 | 41 ft | 8 kts | 199° |
| 2026-05-06 15:22 | 27.97548 | -82.53068 | 42 ft | 13 kts | 289° |
| 2026-05-06 15:23 | 27.97577 | -82.53160 | 42 ft | 8 kts | 290° |
| 2026-05-06 15:23 | 27.97578 | -82.53163 | 42 ft | 0 kts | 289° |